This is the latest recevied weather packets stored in our database for station/object EA5HRE-13. If no packets are shown the sender has not sent any weather packets the latest 10 day(s).
| Time | Temp. | Humidity | Pressure | Rain* | Wind** | Luminosity | Snow |
|---|---|---|---|---|---|---|---|
| 1787736324 | 27.78° C | 67% | 1012.5 hPa | 0 mm | - | - | - |
| 1787735426 | 27.22° C | 66% | 1012.4 hPa | 0 mm | - | - | - |
| 1787734523 | 27.22° C | 66% | 1012.4 hPa | 0 mm | - | - | - |
| 1787733623 | 26.67° C | 66% | 1012.4 hPa | 0 mm | - | - | - |
| 1787732722 | 26.11° C | 67% | 1012.4 hPa | 0 mm | - | - | - |
| 1787731822 | 25.56° C | 68% | 1012.4 hPa | 0 mm | - | - | - |
| 1787730921 | 25° C | 70% | 1012.4 hPa | 0 mm | - | - | - |
| 1787730021 | 24.44° C | 73% | 1012.3 hPa | 0 mm | - | - | - |
| 1787729121 | 23.89° C | 77% | 1012.2 hPa | 0 mm | - | - | - |
| 1787728220 | 23.33° C | 79% | 1012.2 hPa | 0 mm | - | - | - |
| 1787727319 | 22.78° C | 81% | 1012.2 hPa | 0 mm | - | - | - |
| 1787726419 | 22.78° C | 82% | 1012.2 hPa | 0 mm | - | - | - |
| 1787725519 | 22.22° C | 82% | 1012.2 hPa | 0 mm | - | - | - |
| 1787724618 | 22.22° C | 85% | 1012.6 hPa | 0 mm | - | - | - |
| 1787723718 | 22.22° C | 85% | 1012.5 hPa | 0 mm | - | - | - |
| 1787722817 | 22.22° C | 85% | 1012.2 hPa | 0 mm | - | - | - |
| 1787721916 | 22.22° C | 85% | 1012 hPa | 0 mm | - | - | - |
| 1787721016 | 22.22° C | 84% | 1011.8 hPa | 0 mm | - | - | - |
| 1787720116 | 22.78° C | 83% | 1011.7 hPa | 0 mm | - | - | - |
| 1787719216 | 22.78° C | 82% | 1011.6 hPa | 0 mm | - | - | - |
| 1787718315 | 22.78° C | 80% | 1011.5 hPa | 0 mm | - | - | - |
| 1787717415 | 23.33° C | 79% | 1011.5 hPa | 0 mm | - | - | - |
| 1787716514 | 23.33° C | 78% | 1011.5 hPa | 0 mm | - | - | - |
| 1787715614 | 24.44° C | 74% | 1011.9 hPa | 0 mm | - | - | - |
| 1787714714 | 24.44° C | 73% | 1012.2 hPa | 0 mm | - | - | - |
* Rain latest hour (hover to see other rain measurements)
** Current wind speed in m/s (hover to see current wind gust speed)